createdAt,value
2022-11-15T00:01:35.666Z,20.83
2022-11-15T00:05:55.700Z,19.80
2022-11-15T00:10:14.508Z,19.23
2022-11-15T00:14:33.241Z,19.07
2022-11-15T00:18:55.015Z,18.50
2022-11-15T00:23:14.271Z,18.43
2022-11-15T00:27:33.038Z,19.13
2022-11-15T00:31:51.440Z,18.57
2022-11-15T00:36:14.114Z,18.73
2022-11-15T00:40:33.548Z,18.67
2022-11-15T00:44:52.265Z,18.43
2022-11-15T00:49:10.749Z,19.20
2022-11-15T00:53:32.389Z,19.10
2022-11-15T00:57:51.412Z,18.97
2022-11-15T01:02:10.194Z,18.70
2022-11-15T01:06:29.011Z,18.03
2022-11-15T01:10:50.200Z,18.63
2022-11-15T01:15:10.628Z,18.13
2022-11-15T01:19:29.367Z,18.07
2022-11-15T01:23:48.622Z,17.00
2022-11-15T01:28:09.913Z,15.80
2022-11-15T01:32:28.418Z,19.30
2022-11-15T01:36:47.227Z,16.63
2022-11-15T01:41:06.532Z,18.60
2022-11-15T01:45:28.008Z,15.57
2022-11-15T01:49:57.089Z,16.70
2022-11-15T01:54:22.864Z,16.27
2022-11-15T01:58:44.957Z,16.90
2022-11-15T02:03:06.780Z,16.63
2022-11-15T02:07:28.847Z,17.60
2022-11-15T02:11:50.424Z,16.80
2022-11-15T02:16:22.279Z,16.87
2022-11-15T02:21:21.223Z,16.00
2022-11-15T02:25:53.522Z,17.37
2022-11-15T02:30:30.025Z,16.27
2022-11-15T02:34:58.827Z,16.97
2022-11-15T02:39:29.313Z,16.60
2022-11-15T02:44:00.762Z,16.10
2022-11-15T02:48:25.109Z,18.70
2022-11-15T02:52:43.754Z,17.30
2022-11-15T02:57:07.783Z,17.63
2022-11-15T03:01:45.334Z,24.83
2022-11-15T03:06:24.557Z,26.83
2022-11-15T03:10:56.085Z,26.23
2022-11-15T03:15:23.637Z,22.17
2022-11-15T03:19:49.414Z,21.60
2022-11-15T03:24:12.617Z,24.00
2022-11-15T03:28:42.992Z,23.07
2022-11-15T03:33:07.130Z,21.17
2022-11-15T03:37:34.479Z,21.40
2022-11-15T03:42:07.965Z,20.47
2022-11-15T03:46:33.024Z,22.43
2022-11-15T03:50:52.620Z,21.87
2022-11-15T03:55:16.564Z,23.10
2022-11-15T03:59:38.083Z,23.47
2022-11-15T04:03:56.752Z,23.67
2022-11-15T04:08:15.265Z,23.43
2022-11-15T04:12:37.325Z,20.93
2022-11-15T04:16:58.404Z,22.53
2022-11-15T04:21:29.281Z,22.20
2022-11-15T04:25:50.320Z,23.47
2022-11-15T04:30:11.849Z,21.13
2022-11-15T04:34:33.770Z,21.53
2022-11-15T04:38:52.384Z,26.07
2022-11-15T04:43:11.190Z,19.90
2022-11-15T04:47:31.502Z,21.37
2022-11-15T04:51:52.621Z,24.30
2022-11-15T04:56:11.421Z,22.90
2022-11-15T05:00:31.763Z,23.73
2022-11-15T05:04:50.215Z,23.60
2022-11-15T05:09:11.595Z,23.50
2022-11-15T05:13:30.546Z,20.43
2022-11-15T05:17:49.916Z,19.37
2022-11-15T05:22:08.676Z,21.00
2022-11-15T05:26:30.139Z,18.37
2022-11-15T05:30:48.545Z,34.97
2022-11-15T05:35:12.854Z,41.77
2022-11-15T05:39:31.563Z,53.57
2022-11-15T05:43:54.200Z,35.03
2022-11-15T05:48:14.650Z,26.80
2022-11-15T05:52:39.981Z,24.00
2022-11-15T05:56:58.672Z,22.00
2022-11-15T06:01:19.889Z,23.10
2022-11-15T06:05:39.160Z,24.83
2022-11-15T06:09:58.104Z,20.77
2022-11-15T06:14:16.758Z,20.57
2022-11-15T06:18:40.202Z,23.90
2022-11-15T06:23:01.876Z,15.43
2022-11-15T06:27:20.464Z,17.80
2022-11-15T06:31:39.353Z,23.27
2022-11-15T06:36:05.163Z,21.63
2022-11-15T06:40:23.818Z,21.00
2022-11-15T06:44:42.764Z,23.20
2022-11-15T06:49:05.285Z,20.60
2022-11-15T06:53:32.082Z,21.97
2022-11-15T06:57:52.347Z,19.87
2022-11-15T07:02:16.187Z,17.00
2022-11-15T07:06:34.971Z,17.60
2022-11-15T07:11:11.570Z,13.83
2022-11-15T07:15:34.275Z,14.20
2022-11-15T07:19:53.140Z,17.80
2022-11-15T07:24:12.202Z,19.80
2022-11-15T07:28:34.267Z,13.33
2022-11-15T07:32:58.707Z,14.90
2022-11-15T07:37:18.104Z,12.73
2022-11-15T07:41:38.379Z,14.57
2022-11-15T07:46:03.064Z,13.13
2022-11-15T07:50:23.474Z,13.60
2022-11-15T07:54:42.944Z,13.23
2022-11-15T07:59:06.316Z,15.30
2022-11-15T08:03:31.311Z,14.57
2022-11-15T08:07:52.696Z,12.90
2022-11-15T08:12:11.772Z,13.57
2022-11-15T08:16:30.565Z,12.83
2022-11-15T08:20:51.619Z,16.00
2022-11-15T08:25:11.650Z,15.00
2022-11-15T08:29:30.723Z,31.30
2022-11-15T08:33:49.992Z,31.63
2022-11-15T08:38:12.376Z,26.43
2022-11-15T08:42:31.398Z,38.20
2022-11-15T08:46:50.413Z,30.07
2022-11-15T08:51:20.970Z,23.77
2022-11-15T08:55:44.882Z,18.07
2022-11-15T09:00:05.002Z,14.37
2022-11-15T09:04:24.655Z,14.23
2022-11-15T09:08:47.822Z,13.73
2022-11-15T09:13:15.396Z,13.60
2022-11-15T09:17:35.527Z,13.00
2022-11-15T09:21:54.882Z,13.40
2022-11-15T09:26:15.307Z,15.70
2022-11-15T09:30:37.797Z,12.80
2022-11-15T09:46:49.878Z,11.90
2022-11-15T09:52:04.002Z,10.57
2022-11-15T09:56:34.250Z,10.27
2022-11-15T10:00:48.031Z,10.17
2022-11-15T10:04:55.443Z,10.80
2022-11-15T10:09:03.673Z,10.40
2022-11-15T10:13:04.392Z,10.57
2022-11-15T10:17:52.316Z,11.03
2022-11-15T10:22:12.790Z,11.65
2022-11-15T10:26:19.914Z,10.20
2022-11-15T10:30:26.203Z,10.57
2022-11-15T10:34:30.652Z,11.88
2022-11-15T10:38:34.099Z,12.25
2022-11-15T10:42:34.643Z,12.35
2022-11-15T10:46:46.760Z,10.80
2022-11-15T10:50:50.736Z,11.02
2022-11-15T10:54:59.615Z,11.27
2022-11-15T10:59:05.623Z,13.68
2022-11-15T11:03:33.803Z,16.73
2022-11-15T11:07:45.497Z,12.30
2022-11-15T11:11:54.781Z,14.57
2022-11-15T11:16:10.090Z,14.98
2022-11-15T11:20:23.636Z,17.75
2022-11-15T11:24:37.501Z,14.00
2022-11-15T11:28:54.769Z,13.95
2022-11-15T11:33:12.165Z,10.98
2022-11-15T11:37:24.514Z,11.90
2022-11-15T11:41:46.960Z,12.43
2022-11-15T11:46:17.330Z,11.45
2022-11-15T11:50:23.145Z,12.95
2022-11-15T11:54:34.827Z,14.63
2022-11-15T11:58:42.287Z,16.98
2022-11-15T12:02:51.656Z,15.70
2022-11-15T12:06:57.254Z,11.52
2022-11-15T12:11:11.027Z,11.43
2022-11-15T12:15:20.226Z,13.05
2022-11-15T12:19:22.894Z,11.05
2022-11-15T12:23:30.379Z,10.50
2022-11-15T12:27:40.430Z,12.48
2022-11-15T12:31:45.750Z,13.95
2022-11-15T12:36:02.054Z,14.07
2022-11-15T12:40:24.749Z,9.45
2022-11-15T12:45:02.756Z,8.25
2022-11-15T12:49:05.536Z,8.05
2022-11-15T12:53:41.231Z,7.78
2022-11-15T12:57:56.998Z,8.43
2022-11-15T13:02:04.634Z,9.32
2022-11-15T13:06:14.548Z,8.30
2022-11-15T13:10:38.019Z,7.95
2022-11-15T13:14:56.738Z,6.38
2022-11-15T13:19:02.022Z,6.50
2022-11-15T13:23:13.745Z,7.60
2022-11-15T13:27:26.542Z,6.88
2022-11-15T13:31:40.016Z,8.27
2022-11-15T13:35:45.311Z,9.93
2022-11-15T13:39:46.830Z,9.73
2022-11-15T13:43:51.800Z,8.65
2022-11-15T13:48:01.690Z,11.43
2022-11-15T13:52:05.252Z,10.40
2022-11-15T13:56:09.339Z,12.95
2022-11-15T14:00:37.001Z,14.48
2022-11-15T14:04:54.705Z,16.90
2022-11-15T14:09:44.156Z,11.10
2022-11-15T14:14:06.555Z,7.80
2022-11-15T14:18:11.446Z,7.30
2022-11-15T14:22:27.294Z,6.75
2022-11-15T14:26:39.539Z,8.50
2022-11-15T14:30:43.889Z,6.50
2022-11-15T14:34:48.748Z,7.97
2022-11-15T14:38:56.532Z,15.88
2022-11-15T14:42:57.111Z,14.32
2022-11-15T14:47:00.699Z,13.95
2022-11-15T14:51:06.671Z,15.02
2022-11-15T14:55:22.917Z,8.95
2022-11-15T14:59:23.929Z,6.65
2022-11-15T15:03:26.370Z,6.28
2022-11-15T15:07:31.780Z,6.20
2022-11-15T15:11:36.394Z,6.38
2022-11-15T15:15:40.509Z,6.22
2022-11-15T15:19:41.326Z,6.07
2022-11-15T15:23:45.529Z,5.88
2022-11-15T15:27:45.614Z,5.85
2022-11-15T15:31:45.749Z,5.72
2022-11-15T15:35:46.328Z,6.47
2022-11-15T15:39:49.098Z,11.03
2022-11-15T15:43:49.480Z,12.67
2022-11-15T15:47:51.138Z,13.73
2022-11-15T15:51:51.214Z,13.13
2022-11-15T15:55:53.947Z,12.53
2022-11-15T15:59:54.113Z,10.17
2022-11-15T16:03:54.318Z,22.33
2022-11-15T16:07:54.818Z,23.83
2022-11-15T16:11:57.522Z,21.97
2022-11-15T16:15:59.016Z,22.30
2022-11-15T16:19:59.099Z,17.93
2022-11-15T16:23:59.232Z,16.07
2022-11-15T16:28:01.931Z,17.03
2022-11-15T16:32:02.291Z,16.47
2022-11-15T16:36:02.634Z,18.77
2022-11-15T16:40:02.755Z,22.07
2022-11-15T16:44:05.432Z,21.77
2022-11-15T16:48:06.157Z,23.93
2022-11-15T16:52:08.022Z,27.00
2022-11-15T16:56:21.016Z,28.90
2022-11-15T17:00:24.967Z,26.50
2022-11-15T17:04:27.786Z,29.53
2022-11-15T17:08:28.745Z,29.73
2022-11-15T17:12:31.049Z,29.47
2022-11-15T17:16:35.278Z,29.60
2022-11-15T17:20:36.015Z,28.93
2022-11-15T17:24:36.349Z,28.10
2022-11-15T17:28:37.692Z,109.83
2022-11-15T17:32:42.030Z,398.37
2022-11-15T17:36:42.125Z,340.63
2022-11-15T17:40:42.253Z,64.73
2022-11-15T17:44:42.296Z,54.47
2022-11-15T17:48:45.013Z,34.17
2022-11-15T17:52:45.376Z,31.53
2022-11-15T17:56:45.595Z,36.90
2022-11-15T18:00:45.717Z,35.40
2022-11-15T18:04:48.397Z,27.83
2022-11-15T18:08:51.004Z,235.73
2022-11-15T18:12:51.145Z,999.90
2022-11-15T18:16:51.838Z,999.90
2022-11-15T18:21:04.335Z,142.90
2022-11-15T18:25:04.500Z,37.50
2022-11-15T18:29:07.477Z,34.03
2022-11-15T18:33:07.572Z,34.87
2022-11-15T18:37:10.563Z,24.87
2022-11-15T18:41:14.005Z,29.03
2022-11-15T18:45:14.609Z,26.13
2022-11-15T18:49:19.752Z,24.63
2022-11-15T18:53:22.760Z,26.97
2022-11-15T18:57:23.023Z,23.80
2022-11-15T19:01:26.220Z,23.10
2022-11-15T19:05:26.396Z,25.63
2022-11-15T19:09:32.908Z,28.27
2022-11-15T19:13:33.657Z,31.77
2022-11-15T19:17:37.055Z,31.20
2022-11-15T19:21:38.405Z,30.77
2022-11-15T19:25:41.196Z,32.70
2022-11-15T19:29:41.987Z,30.60
2022-11-15T19:33:44.096Z,22.47
2022-11-15T19:37:44.221Z,17.20
2022-11-15T19:41:48.348Z,18.13
2022-11-15T19:46:01.038Z,15.07
2022-11-15T19:50:02.502Z,12.90
2022-11-15T19:54:06.804Z,16.23
2022-11-15T19:58:09.843Z,18.27
2022-11-15T20:02:11.718Z,21.17
2022-11-15T20:06:15.758Z,22.47
2022-11-15T20:10:19.688Z,20.67
2022-11-15T20:14:24.212Z,17.60
2022-11-15T20:18:26.870Z,13.90
2022-11-15T20:22:28.993Z,19.70
2022-11-15T20:26:30.356Z,20.53
2022-11-15T20:30:33.116Z,20.07
2022-11-15T20:34:33.248Z,20.83
2022-11-15T20:38:35.229Z,17.73
2022-11-15T20:42:35.645Z,13.87
2022-11-15T20:46:38.330Z,13.70
2022-11-15T20:50:43.266Z,13.20
2022-11-15T20:54:43.818Z,12.47
2022-11-15T20:58:45.808Z,8.50
2022-11-15T21:02:48.568Z,8.40
2022-11-15T21:06:49.090Z,8.20
2022-11-15T21:11:07.637Z,8.70
2022-11-15T21:15:12.257Z,8.33
2022-11-15T21:19:15.547Z,8.40
2022-11-15T21:23:15.680Z,8.30
2022-11-15T21:27:15.839Z,8.53
2022-11-15T21:31:15.984Z,10.90
2022-11-15T21:35:18.830Z,8.47
2022-11-15T21:39:19.382Z,7.70
2022-11-15T21:43:19.879Z,8.23
2022-11-15T21:47:19.956Z,8.03
2022-11-15T21:51:22.733Z,7.80
2022-11-15T21:55:22.863Z,9.20
2022-11-15T21:59:23.194Z,7.87
2022-11-15T22:03:23.319Z,7.60
2022-11-15T22:07:26.024Z,7.60
2022-11-15T22:11:26.548Z,9.20
2022-11-15T22:15:26.629Z,8.80
2022-11-15T22:19:26.914Z,8.97
2022-11-15T22:23:31.763Z,8.67
2022-11-15T22:27:32.101Z,14.57
2022-11-15T22:31:32.627Z,10.13
2022-11-15T22:35:32.871Z,9.47
2022-11-15T22:39:35.863Z,9.80
2022-11-15T22:43:36.763Z,9.10
2022-11-15T22:47:36.922Z,8.77
2022-11-15T22:51:39.015Z,8.80
2022-11-15T22:55:42.656Z,9.07
2022-11-15T22:59:42.875Z,11.37
2022-11-15T23:03:43.106Z,9.60
2022-11-15T23:07:43.656Z,9.40
2022-11-15T23:11:58.917Z,9.97
2022-11-15T23:16:19.937Z,10.63
2022-11-15T23:20:42.042Z,9.80
2022-11-15T23:24:41.110Z,10.10
2022-11-15T23:28:43.917Z,10.90
2022-11-15T23:32:56.554Z,10.23
2022-11-15T23:36:56.873Z,12.33
2022-11-15T23:40:58.083Z,11.73
2022-11-15T23:45:00.942Z,11.53
2022-11-15T23:49:01.375Z,10.53
2022-11-15T23:53:01.575Z,10.77
2022-11-15T23:57:01.773Z,12.23
